Time;durP1;ratioP1;P1;durP2;ratioP2;P2;SDS_P1;SDS_P2;PMS_P1;PMS_P2;Temp;Humidity;BMP_temperature;BMP_pressure;BME280_temperature;BME280_humidity;BME280_pressure;Samples;Min_cycle;Max_cycle;Signal;HPM_P1;HPM_P2
2023/11/07 00:00:34;;;;;;;8.53;2.30;;;;;;;11.67;100.00;101737.88;2594992;22;20223;-68
2023/11/07 00:01:35;;;;;;;6.73;2.40;;;;;;;11.66;100.00;101725.19;2594209;22;20161;-68
2023/11/07 00:02:35;;;;;;;6.13;1.80;;;;;;;11.62;100.00;101743.06;2594886;22;20171;-69
2023/11/07 00:03:36;;;;;;;4.73;2.23;;;;;;;11.63;100.00;101734.34;2594265;22;20218;-69
2023/11/07 00:04:36;;;;;;;5.17;2.13;;;;;;;11.55;100.00;101727.25;2594196;22;20657;-68
2023/11/07 00:05:36;;;;;;;3.37;1.47;;;;;;;11.59;100.00;101741.13;2594636;22;20154;-68
2023/11/07 00:06:40;;;;;;;3.67;1.80;;;;;;;11.51;100.00;101723.72;2595028;22;20151;-68
2023/11/07 00:07:41;;;;;;;2.40;1.77;;;;;;;10.89;100.00;101630.78;2594725;22;20158;-68
2023/11/07 00:08:41;;;;;;;3.67;2.00;;;;;;;11.56;100.00;101736.34;2594836;22;20374;-68
2023/11/07 00:09:42;;;;;;;3.83;2.00;;;;;;;11.34;100.00;101702.50;2593054;22;20155;-68
2023/11/07 00:10:42;;;;;;;5.97;1.80;;;;;;;11.54;100.00;101745.09;2594882;22;20153;-68
2023/11/07 00:11:42;;;;;;;6.97;2.13;;;;;;;11.55;100.00;101741.16;2594771;22;20188;-68
2023/11/07 00:12:43;;;;;;;5.80;2.10;;;;;;;11.55;100.00;101759.78;2594558;22;20154;-68
2023/11/07 00:13:44;;;;;;;3.97;2.20;;;;;;;11.53;100.00;101740.75;2592935;22;20183;-68
2023/11/07 00:14:45;;;;;;;3.53;1.77;;;;;;;10.66;100.00;101616.75;2594532;22;20592;-68
2023/11/07 00:15:46;;;;;;;5.33;2.27;;;;;;;11.42;100.00;101728.19;2594766;22;20154;-68
2023/11/07 00:16:47;;;;;;;4.00;2.13;;;;;;;11.24;100.00;101722.81;2594913;22;20380;-68
2023/11/07 00:17:50;;;;;;;2.00;1.30;;;;;;;11.50;100.00;101738.00;2594650;22;20147;-68
2023/11/07 00:18:51;;;;;;;3.07;1.90;;;;;;;11.42;100.00;101734.50;2594704;22;20396;-68
2023/11/07 00:19:51;;;;;;;3.57;1.80;;;;;;;11.47;100.00;101742.41;2593281;22;20370;-68
2023/11/07 00:20:52;;;;;;;5.83;2.10;;;;;;;11.25;100.00;101707.72;2594493;22;20143;-68
2023/11/07 00:21:52;;;;;;;6.77;2.30;;;;;;;11.44;100.00;101748.78;2594566;22;20146;-68
2023/11/07 00:22:53;;;;;;;4.70;2.20;;;;;;;11.45;100.00;101747.59;2594611;22;20552;-68
2023/11/07 00:23:53;;;;;;;3.93;1.63;;;;;;;11.44;100.00;101745.22;2593143;22;20280;-68
2023/11/07 00:24:53;;;;;;;5.43;1.90;;;;;;;11.43;100.00;101738.09;2598230;22;20150;-68
2023/11/07 00:25:54;;;;;;;4.77;1.97;;;;;;;11.42;100.00;101745.63;2607624;22;20141;-68
2023/11/07 00:26:55;;;;;;;4.27;1.80;;;;;;;11.43;100.00;101752.75;2607698;22;20204;-68
2023/11/07 00:27:55;;;;;;;6.63;2.07;;;;;;;11.40;100.00;101739.69;2606714;22;20603;-68
2023/11/07 00:28:56;;;;;;;2.97;1.67;;;;;;;11.40;100.00;101741.69;2606912;22;20431;-68
2023/11/07 00:29:56;;;;;;;3.97;2.20;;;;;;;11.38;100.00;101742.09;2606528;22;20177;-68
2023/11/07 00:30:57;;;;;;;4.60;1.53;;;;;;;11.35;100.00;101742.91;2606630;22;20342;-68
2023/11/07 00:31:57;;;;;;;3.87;2.13;;;;;;;11.37;100.00;101739.75;2607110;22;20503;-68
2023/11/07 00:32:58;;;;;;;4.60;1.83;;;;;;;11.39;100.00;101745.66;2607455;22;20154;-68
2023/11/07 00:33:58;;;;;;;4.03;2.20;;;;;;;11.37;100.00;101754.38;2606359;22;20218;-68
2023/11/07 00:34:59;;;;;;;3.50;1.83;;;;;;;11.38;100.00;101750.41;2607680;22;20153;-68
2023/11/07 00:35:59;;;;;;;6.03;1.30;;;;;;;11.40;100.00;101755.56;2607194;22;20200;-68
2023/11/07 00:37:00;;;;;;;3.63;1.40;;;;;;;11.40;100.00;101755.56;2607649;22;20151;-68
2023/11/07 00:38:00;;;;;;;5.70;2.00;;;;;;;11.39;100.00;101760.34;2607263;22;20217;-68
2023/11/07 00:39:01;;;;;;;6.07;1.97;;;;;;;10.75;100.00;101655.84;2607004;22;20142;-68
2023/11/07 00:40:02;;;;;;;3.73;1.53;;;;;;;10.29;100.00;101584.16;2606878;22;20142;-68
2023/11/07 00:41:03;;;;;;;5.50;1.50;;;;;;;11.40;100.00;101761.91;2607185;22;20171;-68
2023/11/07 00:42:06;;;;;;;2.50;1.40;;;;;;;10.75;100.00;101662.22;2592584;22;20209;-68
2023/11/07 00:43:07;;;;;;;4.40;1.97;;;;;;;11.51;100.00;101770.13;2594089;22;20436;-68
2023/11/07 00:44:07;;;;;;;4.37;1.50;;;;;;;11.17;100.00;101725.63;2605916;22;20406;-68
2023/11/07 00:45:08;;;;;;;4.03;1.63;;;;;;;11.45;100.00;101760.66;2607440;22;20204;-68
2023/11/07 00:46:08;;;;;;;4.30;2.00;;;;;;;10.71;100.00;101646.81;2593493;22;20163;-68
2023/11/07 00:47:09;;;;;;;7.20;1.77;;;;;;;11.37;100.00;101746.06;2594085;22;20143;-68
2023/11/07 00:48:10;;;;;;;2.30;1.27;;;;;;;11.52;100.00;101769.72;2607184;22;20147;-68
2023/11/07 00:49:11;;;;;;;3.43;1.60;;;;;;;11.52;100.00;101766.94;2607063;22;20208;-68
2023/11/07 00:50:11;;;;;;;8.63;2.13;;;;;;;11.54;100.00;101783.19;2606918;22;20462;-68
2023/11/07 00:51:12;;;;;;;6.67;2.00;;;;;;;11.54;100.00;101764.53;2607685;22;20517;-68
2023/11/07 00:52:12;;;;;;;3.07;1.70;;;;;;;11.52;100.00;101761.38;2606194;22;20147;-68
2023/11/07 00:53:13;;;;;;;3.63;1.93;;;;;;;11.52;100.00;101764.16;2607011;22;20550;-68
2023/11/07 00:54:14;;;;;;;4.37;1.80;;;;;;;11.49;100.00;101770.56;2606107;22;20155;-68
2023/11/07 00:55:14;;;;;;;4.27;1.80;;;;;;;11.50;100.00;101765.78;2607446;22;20366;-68
2023/11/07 00:56:15;;;;;;;2.87;1.47;;;;;;;11.48;100.00;101762.63;2593657;22;20386;-68
2023/11/07 00:57:16;;;;;;;9.37;1.60;;;;;;;11.45;100.00;101761.47;2593144;22;20584;-68
2023/11/07 00:58:18;;;;;;;4.30;1.70;;;;;;;11.41;100.00;101751.56;2607445;22;20157;-68
2023/11/07 00:59:18;;;;;;;6.17;1.50;;;;;;;11.43;100.00;101761.06;2606517;22;20402;-68
2023/11/07 01:00:21;;;;;;;5.37;1.60;;;;;;;11.42;100.00;101764.28;2607007;22;20496;-68
2023/11/07 01:01:21;;;;;;;3.93;1.90;;;;;;;11.25;100.00;101743.00;2607352;22;20150;-68
2023/11/07 01:02:23;;;;;;;5.77;1.57;;;;;;;11.42;100.00;101775.38;2606535;22;20392;-68
2023/11/07 01:03:23;;;;;;;3.20;1.70;;;;;;;11.42;100.00;101769.84;2593133;22;20744;-68
2023/11/07 01:04:24;;;;;;;4.17;2.10;;;;;;;11.35;100.00;101764.31;2593000;22;20893;-68
2023/11/07 01:05:24;;;;;;;6.63;2.00;;;;;;;11.37;100.00;101768.25;2607027;22;20182;-68
2023/11/07 01:06:25;;;;;;;5.60;1.80;;;;;;;11.39;100.00;101773.41;2607412;22;20172;-68
2023/11/07 01:07:25;;;;;;;4.83;1.80;;;;;;;11.41;100.00;101779.34;2607033;22;20191;-68
2023/11/07 01:08:26;;;;;;;8.17;2.10;;;;;;;11.41;100.00;101773.78;2607432;22;20626;-68
2023/11/07 01:09:26;;;;;;;4.53;1.53;;;;;;;11.39;100.00;101767.88;2606368;22;20229;-68
2023/11/07 01:10:27;;;;;;;5.10;1.57;;;;;;;11.39;100.00;101765.09;2607284;22;20146;-68
2023/11/07 01:11:27;;;;;;;4.87;1.57;;;;;;;11.37;100.00;101762.72;2606818;22;20497;-68
2023/11/07 01:12:28;;;;;;;6.50;1.70;;;;;;;11.37;100.00;101759.94;2607509;22;20153;-68
2023/11/07 01:13:28;;;;;;;3.80;1.50;;;;;;;11.37;100.00;101761.94;2605758;22;20146;-68
2023/11/07 01:14:29;;;;;;;3.90;1.47;;;;;;;11.38;100.00;101761.50;2606159;22;20500;-68
2023/11/07 01:15:29;;;;;;;3.67;1.67;;;;;;;11.38;100.00;101761.50;2607034;22;20280;-68
2023/11/07 01:16:30;;;;;;;5.97;2.20;;;;;;;11.38;100.00;101758.75;2607431;22;20158;-68
2023/11/07 01:17:30;;;;;;;5.80;1.83;;;;;;;11.40;100.00;101763.88;2607196;22;20154;-68
2023/11/07 01:18:31;;;;;;;3.73;1.53;;;;;;;11.39;100.00;101759.53;2607399;22;20149;-68
2023/11/07 01:19:32;;;;;;;3.60;1.33;;;;;;;11.37;100.00;101761.94;2606534;22;20221;-68
2023/11/07 01:20:33;;;;;;;2.90;1.60;;;;;;;11.37;100.00;101767.50;2607161;22;20377;-68
2023/11/07 01:21:33;;;;;;;2.93;1.30;;;;;;;11.38;100.00;101767.06;2606983;22;20146;-68
2023/11/07 01:22:34;;;;;;;3.73;1.80;;;;;;;11.37;100.00;101762.72;2607306;22;20388;-68
2023/11/07 01:23:35;;;;;;;5.27;1.60;;;;;;;11.08;100.00;101719.00;2605820;22;20178;-68
2023/11/07 01:24:35;;;;;;;7.33;1.93;;;;;;;11.38;100.00;101767.06;2606559;22;20384;-68
2023/11/07 01:25:36;;;;;;;3.90;1.50;;;;;;;11.30;100.00;101753.66;2606122;22;20517;-68
2023/11/07 01:26:36;;;;;;;3.03;1.50;;;;;;;11.37;100.00;101767.50;2607653;22;20157;-68
2023/11/07 01:27:37;;;;;;;8.13;1.73;;;;;;;11.37;100.00;101770.28;2607213;22;20153;-69
2023/11/07 01:28:37;;;;;;;5.77;1.60;;;;;;;11.36;100.00;101769.47;2607239;22;20590;-69
2023/11/07 01:29:38;;;;;;;5.50;1.53;;;;;;;11.37;100.00;101771.03;2606584;22;20154;-69
2023/11/07 01:30:38;;;;;;;5.00;1.50;;;;;;;11.37;100.00;101768.25;2607333;22;20146;-69
2023/11/07 01:31:39;;;;;;;3.90;1.60;;;;;;;11.37;100.00;101768.25;2607070;22;20473;-68
2023/11/07 01:32:42;;;;;;;3.40;1.47;;;;;;;11.39;100.00;101767.88;2607205;22;20154;-68
2023/11/07 01:33:42;;;;;;;3.97;1.77;;;;;;;11.40;100.00;101774.97;2606130;22;20513;-68
2023/11/07 01:34:43;;;;;;;3.20;1.50;;;;;;;11.41;100.00;101773.78;2606197;22;20373;-68
2023/11/07 01:35:44;;;;;;;5.40;1.50;;;;;;;10.28;100.00;101602.00;2607055;22;20155;-68
2023/11/07 01:36:45;;;;;;;3.83;1.30;;;;;;;11.40;100.00;101769.44;2607354;22;20402;-68
2023/11/07 01:37:45;;;;;;;2.90;1.57;;;;;;;11.37;100.00;101770.28;2607245;22;20878;-68
2023/11/07 01:38:46;;;;;;;3.03;1.40;;;;;;;11.31;100.00;101756.03;2607006;22;20698;-68
2023/11/07 01:39:46;;;;;;;3.97;1.60;;;;;;;11.37;100.00;101765.50;2605616;22;20161;-68
2023/11/07 01:40:47;;;;;;;2.23;1.47;;;;;;;11.35;100.00;101767.91;2606593;22;20150;-68
2023/11/07 01:41:48;;;;;;;8.30;1.67;;;;;;;10.63;100.00;101653.59;2607434;22;20239;-68
2023/11/07 01:42:48;;;;;;;3.13;1.43;;;;;;;11.31;100.00;101769.91;2607161;22;20181;-68
2023/11/07 01:43:49;;;;;;;4.63;1.70;;;;;;;11.30;100.00;101773.09;2605681;22;20568;-68
2023/11/07 01:44:51;;;;;;;3.73;1.60;;;;;;;11.30;100.00;101765.56;2606495;22;20620;-68
2023/11/07 01:45:51;;;;;;;3.60;1.30;;;;;;;11.30;100.00;101762.00;2607070;22;20638;-68
2023/11/07 01:46:52;;;;;;;3.03;1.30;;;;;;;11.31;100.00;101775.47;2607202;22;20759;-68
2023/11/07 01:47:52;;;;;;;3.20;1.30;;;;;;;11.32;100.00;101763.16;2607221;22;20171;-68
2023/11/07 01:48:53;;;;;;;6.30;1.70;;;;;;;11.32;100.00;101768.72;2607438;22;20146;-68
2023/11/07 01:49:54;;;;;;;4.30;1.40;;;;;;;11.32;100.00;101770.72;2606372;22;20151;-68
2023/11/07 01:50:55;;;;;;;3.43;1.30;;;;;;;11.21;100.00;101754.13;2607105;22;20376;-68
2023/11/07 01:51:59;;;;;;;6.93;2.20;;;;;;;11.32;100.00;101771.47;2607128;22;20147;-68
2023/11/07 01:53:00;;;;;;;3.90;1.60;;;;;;;11.32;100.00;101771.47;2607066;22;20368;-68
2023/11/07 01:54:01;;;;;;;4.53;1.60;;;;;;;11.31;100.00;101769.09;2605319;22;20833;-68
2023/11/07 01:55:02;;;;;;;10.37;2.13;;;;;;;10.63;100.00;101675.75;2607142;22;20779;-68
2023/11/07 01:56:03;;;;;;;4.67;1.80;;;;;;;11.27;100.00;101768.38;2605918;22;20392;-68
2023/11/07 01:57:04;;;;;;;4.20;1.30;;;;;;;11.26;100.00;101778.69;2607355;22;20162;-68
2023/11/07 01:58:06;;;;;;;3.73;1.23;;;;;;;11.23;100.00;101779.47;2607275;22;20202;-68
2023/11/07 01:59:07;;;;;;;5.57;1.30;;;;;;;10.78;100.00;101707.72;2606253;22;20465;-68
2023/11/07 02:00:10;;;;;;;5.57;1.27;;;;;;;11.23;100.00;101778.72;2606981;22;20426;-68
2023/11/07 02:01:11;;;;;;;8.40;1.57;;;;;;;11.18;100.00;101773.59;2607307;22;20161;-68
2023/11/07 02:02:17;;;;;;;2.37;1.37;;;;;;;11.15;100.00;101777.97;2607074;22;20380;-68
2023/11/07 02:03:19;;;;;;;4.67;1.40;;;;;;;11.11;100.00;101777.22;2606953;22;20170;-68
2023/11/07 02:04:21;;;;;;;2.97;1.50;;;;;;;11.08;100.00;101774.47;2605956;22;20379;-68
2023/11/07 02:05:22;;;;;;;5.70;1.63;;;;;;;10.87;100.00;101767.06;2607713;22;20426;-68
2023/11/07 02:06:22;;;;;;;3.77;1.30;;;;;;;11.12;100.00;101781.56;2607183;22;20930;-68
2023/11/07 02:07:22;;;;;;;3.27;1.53;;;;;;;11.12;100.00;101792.66;2608191;22;20614;-68
2023/11/07 02:08:24;;;;;;;5.03;1.60;;;;;;;11.08;100.00;101778.03;2607110;22;20207;-68
2023/11/07 02:09:25;;;;;;;4.63;1.50;;;;;;;11.14;100.00;101792.25;2607323;22;20168;-68
2023/11/07 02:10:25;;;;;;;4.13;1.70;;;;;;;11.14;100.00;101783.94;2608090;22;20369;-68
2023/11/07 02:11:28;;;;;;;4.47;1.80;;;;;;;11.14;100.00;101795.81;2607793;22;20161;-68
2023/11/07 02:12:28;;;;;;;5.97;1.93;;;;;;;11.13;100.00;101787.91;2608200;22;20151;-68
2023/11/07 02:13:29;;;;;;;1.90;1.13;;;;;;;11.14;100.00;101792.25;2607430;22;20363;-68
2023/11/07 02:14:35;;;;;;;4.33;1.53;;;;;;;11.14;100.00;101787.50;2607289;22;20158;-68
2023/11/07 02:15:38;;;;;;;2.63;1.40;;;;;;;11.12;100.00;101791.88;2608305;22;20556;-68
2023/11/07 02:16:38;;;;;;;5.03;1.50;;;;;;;11.12;100.00;101783.56;2593411;22;20385;-68
2023/11/07 02:17:39;;;;;;;3.53;1.37;;;;;;;11.11;100.00;101781.97;2594316;22;20371;-68
2023/11/07 02:18:39;;;;;;;4.17;1.53;;;;;;;11.08;100.00;101791.13;2607682;22;20172;-68
2023/11/07 02:19:40;;;;;;;2.57;1.33;;;;;;;11.07;100.00;101795.09;2607184;22;20267;-68
2023/11/07 02:20:41;;;;;;;3.60;1.10;;;;;;;11.04;100.00;101805.00;2607569;22;20150;-68
2023/11/07 02:21:45;;;;;;;4.87;1.90;;;;;;;10.26;100.00;101670.84;2607850;22;20237;-68
2023/11/07 02:22:47;;;;;;;4.33;1.47;;;;;;;11.08;100.00;101797.47;2607300;22;20384;-68
2023/11/07 02:23:47;;;;;;;4.37;1.57;;;;;;;11.10;100.00;101794.25;2606738;22;20645;-68
2023/11/07 02:24:48;;;;;;;5.40;1.43;;;;;;;11.11;100.00;101793.84;2607593;22;20406;-68
2023/11/07 02:25:51;;;;;;;8.17;1.40;;;;;;;11.11;100.00;101796.63;2607707;22;20138;-68
2023/11/07 02:26:56;;;;;;;2.97;1.37;;;;;;;11.12;100.00;101792.66;2607577;22;20153;-68
2023/11/07 02:27:56;;;;;;;4.83;1.53;;;;;;;10.93;100.00;101768.25;2601214;22;20467;-68
2023/11/07 02:28:57;;;;;;;4.73;1.30;;;;;;;11.09;100.00;101789.91;2607942;22;20443;-68
2023/11/07 02:29:57;;;;;;;3.13;1.10;;;;;;;11.10;100.00;101799.81;2606695;22;20181;-68
2023/11/07 02:30:58;;;;;;;2.53;1.30;;;;;;;11.07;100.00;101793.09;2608289;22;20208;-68
2023/11/07 02:31:59;;;;;;;3.07;1.20;;;;;;;11.08;100.00;101796.66;2607932;22;20207;-68
2023/11/07 02:33:04;;;;;;;3.40;1.13;;;;;;;11.07;100.00;101798.63;2607818;22;20169;-68
2023/11/07 02:34:05;;;;;;;2.33;1.20;;;;;;;11.06;100.00;101801.84;2606641;22;20855;-68
2023/11/07 02:35:07;;;;;;;3.27;1.20;;;;;;;11.07;100.00;101806.19;2607850;22;20846;-68
2023/11/07 02:36:08;;;;;;;5.43;1.37;;;;;;;11.08;100.00;101799.44;2607833;22;20456;-68
2023/11/07 02:37:08;;;;;;;2.57;1.20;;;;;;;11.10;100.00;101799.81;2607464;22;20847;-68
2023/11/07 02:38:10;;;;;;;4.50;1.60;;;;;;;11.13;100.00;101804.56;2606787;22;20165;-68
2023/11/07 02:39:12;;;;;;;2.57;0.97;;;;;;;11.10;100.00;101797.03;2607037;22;20159;-68
2023/11/07 02:40:13;;;;;;;3.00;1.10;;;;;;;11.17;100.00;101806.09;2594297;22;20394;-68
2023/11/07 02:41:14;;;;;;;2.00;1.00;;;;;;;10.93;100.00;101770.22;2594530;22;20431;-68
2023/11/07 02:42:15;;;;;;;1.83;1.10;;;;;;;11.09;100.00;101795.47;2607890;22;20436;-68
2023/11/07 02:43:15;;;;;;;5.90;1.67;;;;;;;10.73;100.00;101724.81;2607794;22;20205;-68
2023/11/07 02:44:16;;;;;;;4.17;1.90;;;;;;;11.26;100.00;101813.94;2606528;22;20376;-68
2023/11/07 02:45:17;;;;;;;4.93;1.60;;;;;;;11.21;100.00;101806.06;2607948;22;20548;-68
2023/11/07 02:46:17;;;;;;;5.57;1.60;;;;;;;11.28;100.00;101809.56;2607246;22;20158;-68
2023/11/07 02:47:18;;;;;;;3.77;1.87;;;;;;;11.29;100.00;101808.41;2608004;22;20154;-68
2023/11/07 02:48:18;;;;;;;3.27;1.37;;;;;;;10.19;100.00;101640.44;2607334;22;20647;-68
2023/11/07 02:49:18;;;;;;;3.40;1.50;;;;;;;11.30;100.00;101803.63;2606983;22;20151;-68
2023/11/07 02:50:20;;;;;;;5.67;1.33;;;;;;;11.18;100.00;101788.25;2607689;22;20241;-68
2023/11/07 02:51:22;;;;;;;3.60;1.97;;;;;;;11.23;100.00;101793.34;2607132;22;20540;-68
2023/11/07 02:52:24;;;;;;;3.33;1.60;;;;;;;11.32;100.00;101809.56;2607905;22;20381;-68
2023/11/07 02:53:24;;;;;;;6.00;1.80;;;;;;;10.90;100.00;101746.06;2607319;22;20474;-68
2023/11/07 02:54:25;;;;;;;5.10;1.30;;;;;;;11.32;100.00;101809.56;2606800;22;20462;-68
2023/11/07 02:55:25;;;;;;;3.47;1.40;;;;;;;10.21;100.00;101629.75;2607577;22;20154;-68
2023/11/07 02:56:29;;;;;;;3.87;1.20;;;;;;;11.39;100.00;101804.75;2608142;22;20146;-68
2023/11/07 02:57:29;;;;;;;5.77;1.33;;;;;;;10.57;100.00;101680.97;2607353;22;20154;-68
2023/11/07 02:58:30;;;;;;;3.63;1.70;;;;;;;11.42;100.00;101808.69;2607929;22;20379;-68
2023/11/07 02:59:31;;;;;;;4.53;1.30;;;;;;;11.25;100.00;101785.44;2605793;22;20295;-68
2023/11/07 03:00:32;;;;;;;4.73;1.13;;;;;;;11.40;100.00;101806.31;2607754;22;20175;-68
2023/11/07 03:01:32;;;;;;;6.40;1.97;;;;;;;11.40;100.00;101802.75;2607594;22;20376;-68
2023/11/07 03:02:35;;;;;;;5.13;1.30;;;;;;;10.26;100.00;101634.84;2593969;22;20158;-68
2023/11/07 03:03:37;;;;;;;4.67;1.10;;;;;;;11.03;100.00;101772.94;2593876;22;20718;-68
2023/11/07 03:04:38;;;;;;;5.20;1.40;;;;;;;10.99;100.00;101761.06;2607407;22;20416;-68
2023/11/07 03:05:38;;;;;;;8.37;1.40;;;;;;;11.32;100.00;101815.88;2607228;22;20373;-68
2023/11/07 03:06:39;;;;;;;2.60;1.10;;;;;;;10.81;100.00;101732.66;2607794;22;20380;-68
2023/11/07 03:07:39;;;;;;;6.63;1.57;;;;;;;11.31;100.00;101813.50;2607836;22;20147;-68
2023/11/07 03:08:40;;;;;;;1.67;1.10;;;;;;;11.30;100.00;101820.28;2594107;22;20151;-68
2023/11/07 03:09:40;;;;;;;8.73;1.80;;;;;;;11.25;100.00;101807.63;2592766;22;20724;-68
2023/11/07 03:10:41;;;;;;;2.47;1.47;;;;;;;11.22;100.00;101804.88;2607659;22;20225;-68
2023/11/07 03:11:42;;;;;;;4.90;1.30;;;;;;;11.31;100.00;101819.06;2607977;22;20174;-68
2023/11/07 03:12:42;;;;;;;4.10;1.50;;;;;;;11.28;100.00;101825.44;2607723;22;20532;-68
2023/11/07 03:13:43;;;;;;;4.50;1.67;;;;;;;11.27;100.00;101823.88;2607016;22;20184;-68
2023/11/07 03:14:43;;;;;;;5.47;1.80;;;;;;;11.27;100.00;101826.66;2607277;22;20150;-68
2023/11/07 03:15:44;;;;;;;4.93;1.47;;;;;;;11.25;100.00;101827.06;2607753;22;20186;-68
2023/11/07 03:16:45;;;;;;;8.17;1.70;;;;;;;11.25;100.00;101829.03;2607744;22;20174;-68
2023/11/07 03:17:46;;;;;;;4.93;1.47;;;;;;;11.26;100.00;101828.63;2607706;22;20157;-68
2023/11/07 03:18:47;;;;;;;1.50;1.07;;;;;;;11.25;100.00;101838.16;2607741;22;20381;-68
2023/11/07 03:19:51;;;;;;;3.73;1.20;;;;;;;11.26;100.00;101838.91;2606243;22;20464;-68
2023/11/07 03:20:52;;;;;;;6.73;1.77;;;;;;;11.28;100.00;101839.31;2605867;22;20217;-68
2023/11/07 03:21:53;;;;;;;6.27;1.30;;;;;;;11.28;100.00;101831.00;2607615;22;20377;-68
2023/11/07 03:22:53;;;;;;;4.73;1.80;;;;;;;10.96;100.00;101769.41;2607497;22;20147;-68
2023/11/07 03:23:53;;;;;;;2.37;1.50;;;;;;;11.09;100.00;101792.69;2606336;22;20147;-68
2023/11/07 03:24:54;;;;;;;6.03;1.50;;;;;;;10.76;100.00;101738.63;2607819;22;20150;-68
2023/11/07 03:25:54;;;;;;;11.60;1.80;;;;;;;11.26;100.00;101825.84;2607579;22;20162;-68
2023/11/07 03:26:55;;;;;;;8.50;1.80;;;;;;;11.27;100.00;101829.44;2607929;22;20147;-68
2023/11/07 03:27:55;;;;;;;6.47;1.13;;;;;;;11.27;100.00;101821.88;2607799;22;20183;-68
2023/11/07 03:28:56;;;;;;;7.63;1.87;;;;;;;11.27;100.00;101823.88;2607862;22;20225;-68
2023/11/07 03:29:57;;;;;;;4.90;1.23;;;;;;;10.48;100.00;101699.22;2606812;22;20171;-68
2023/11/07 03:30:58;;;;;;;6.23;1.60;;;;;;;11.24;100.00;101813.56;2606983;22;20157;-68
2023/11/07 03:31:58;;;;;;;3.13;1.60;;;;;;;11.23;100.00;101814.78;2607446;22;20369;-68
2023/11/07 03:32:59;;;;;;;3.83;1.53;;;;;;;11.23;100.00;101812.78;2607666;22;20229;-68
2023/11/07 03:33:59;;;;;;;6.20;1.60;;;;;;;11.24;100.00;101816.34;2605352;22;20216;-68
2023/11/07 03:35:00;;;;;;;8.87;1.50;;;;;;;11.23;100.00;101818.31;2607453;22;20166;-68
2023/11/07 03:36:00;;;;;;;5.97;1.30;;;;;;;11.25;100.00;101812.38;2607524;22;20661;-68
2023/11/07 03:37:01;;;;;;;5.30;1.60;;;;;;;11.08;100.00;101797.47;2607894;22;20611;-68
2023/11/07 03:38:01;;;;;;;5.53;1.47;;;;;;;11.12;100.00;101808.53;2607589;22;20415;-68
2023/11/07 03:39:02;;;;;;;3.77;1.33;;;;;;;11.22;100.00;101829.84;2606880;22;20152;-68
2023/11/07 03:40:04;;;;;;;6.03;1.40;;;;;;;11.18;100.00;101827.09;2607255;22;20143;-68
2023/11/07 03:41:04;;;;;;;9.93;1.80;;;;;;;11.19;100.00;101825.91;2607489;22;20150;-68
2023/11/07 03:42:05;;;;;;;8.10;2.10;;;;;;;11.18;100.00;101835.41;2606183;22;20404;-68
2023/11/07 03:43:05;;;;;;;10.20;2.07;;;;;;;11.16;100.00;101831.47;2607682;22;20146;-68
2023/11/07 03:44:06;;;;;;;3.80;1.73;;;;;;;11.15;100.00;101833.47;2606239;22;20146;-68
2023/11/07 03:45:07;;;;;;;9.47;1.53;;;;;;;11.14;100.00;101831.91;2607812;22;20144;-68
2023/11/07 03:46:07;;;;;;;6.47;1.87;;;;;;;11.11;100.00;101832.69;2607453;22;20592;-68
2023/11/07 03:47:08;;;;;;;3.67;1.30;;;;;;;11.08;100.00;101827.97;2607539;22;20147;-68
2023/11/07 03:48:08;;;;;;;5.07;1.23;;;;;;;11.07;100.00;101831.91;2606952;22;20147;-68
2023/11/07 03:49:08;;;;;;;5.23;1.50;;;;;;;11.05;100.00;101828.78;2606521;22;20147;-68
2023/11/07 03:50:10;;;;;;;9.23;1.50;;;;;;;11.04;100.00;101832.75;2607456;22;20153;-68
2023/11/07 03:51:11;;;;;;;3.53;1.43;;;;;;;10.87;100.00;101811.44;2607634;22;20179;-69
2023/11/07 03:52:11;;;;;;;8.87;1.17;;;;;;;10.79;100.00;101789.72;2606677;22;20388;-68
2023/11/07 03:53:12;;;;;;;3.13;1.33;;;;;;;10.98;100.00;101825.25;2607153;22;20146;-68
2023/11/07 03:54:13;;;;;;;2.83;1.23;;;;;;;10.93;100.00;101823.72;2605973;22;20618;-68
2023/11/07 03:55:13;;;;;;;4.20;1.37;;;;;;;10.78;100.00;101805.59;2607684;22;20492;-68
2023/11/07 03:56:14;;;;;;;6.57;1.30;;;;;;;10.85;100.00;101824.94;2607446;22;20420;-68
2023/11/07 03:57:15;;;;;;;5.03;1.60;;;;;;;10.82;100.00;101830.50;2607928;22;20227;-68
2023/11/07 03:58:15;;;;;;;4.73;1.83;;;;;;;10.02;100.00;101720.81;2593773;22;20930;-68
2023/11/07 03:59:16;;;;;;;2.57;1.67;;;;;;;10.40;100.00;101783.63;2593324;22;20151;-68
2023/11/07 04:00:19;;;;;;;4.23;1.67;;;;;;;10.72;100.00;101834.91;2607334;22;20317;-68
2023/11/07 04:01:19;;;;;;;6.60;2.00;;;;;;;10.69;100.00;101846.00;2607404;22;20162;-68
2023/11/07 04:02:21;;;;;;;4.97;1.83;;;;;;;10.62;100.00;101848.84;2607596;22;20365;-68
2023/11/07 04:03:22;;;;;;;6.70;1.83;;;;;;;10.59;100.00;101855.16;2605009;22;20780;-68
2023/11/07 04:04:23;;;;;;;5.87;1.80;;;;;;;10.57;100.00;101858.38;2606573;22;20738;-68
2023/11/07 04:05:23;;;;;;;7.33;2.37;;;;;;;10.05;100.00;101781.75;2607413;22;20558;-68
2023/11/07 04:06:24;;;;;;;5.40;1.90;;;;;;;10.55;100.00;101857.97;2607781;22;20373;-68
2023/11/07 04:07:24;;;;;;;6.63;2.13;;;;;;;10.57;100.00;101863.13;2607546;22;20203;-68
2023/11/07 04:08:25;;;;;;;4.50;1.93;;;;;;;10.55;100.00;101862.75;2607513;22;20505;-68
2023/11/07 04:09:25;;;;;;;9.83;2.40;;;;;;;10.47;100.00;101848.13;2606716;22;20150;-68
2023/11/07 04:10:27;;;;;;;5.93;2.37;;;;;;;10.42;100.00;101843.00;2607423;22;20226;-68
2023/11/07 04:11:28;;;;;;;9.00;2.23;;;;;;;10.52;100.00;101857.97;2607633;22;20591;-68
2023/11/07 04:12:28;;;;;;;4.57;1.97;;;;;;;10.34;100.00;101835.06;2607506;22;20384;-68
2023/11/07 04:13:29;;;;;;;4.70;2.30;;;;;;;10.50;100.00;101860.38;2606666;22;20397;-68
2023/11/07 04:14:30;;;;;;;5.00;2.30;;;;;;;10.51;100.00;101865.50;2605867;22;20446;-68
2023/11/07 04:15:31;;;;;;;9.27;2.07;;;;;;;10.52;100.00;101869.06;2607417;22;20398;-68
2023/11/07 04:16:32;;;;;;;6.03;2.33;;;;;;;10.49;100.00;101862.34;2607772;22;20418;-68
2023/11/07 04:17:33;;;;;;;8.47;2.03;;;;;;;10.45;100.00;101861.56;2606795;22;20865;-68
2023/11/07 04:18:34;;;;;;;10.80;2.40;;;;;;;10.39;100.00;101881.78;2607493;22;20146;-68
2023/11/07 04:19:34;;;;;;;5.27;1.93;;;;;;;10.39;100.00;101859.59;2606718;22;20377;-68
2023/11/07 04:20:35;;;;;;;7.03;2.07;;;;;;;10.26;100.00;101842.63;2607627;22;20225;-68
2023/11/07 04:21:36;;;;;;;7.10;2.20;;;;;;;10.40;100.00;101869.53;2607102;22;20154;-68
2023/11/07 04:22:37;;;;;;;7.63;2.30;;;;;;;10.32;100.00;101857.66;2607690;22;20178;-68
2023/11/07 04:23:39;;;;;;;4.60;1.87;;;;;;;10.37;100.00;101881.41;2606590;22;20424;-68
2023/11/07 04:24:40;;;;;;;3.50;1.87;;;;;;;10.31;100.00;101874.69;2605893;22;20380;-68
2023/11/07 04:25:42;;;;;;;7.47;1.60;;;;;;;10.33;100.00;101880.59;2607508;22;20411;-68
2023/11/07 04:26:43;;;;;;;3.60;2.10;;;;;;;10.22;100.00;101864.03;2607467;22;20147;-68
2023/11/07 04:27:45;;;;;;;9.77;2.00;;;;;;;10.28;100.00;101870.75;2607243;22;20373;-68
2023/11/07 04:28:46;;;;;;;10.80;2.30;;;;;;;10.33;100.00;101878.63;2607535;22;20937;-68
2023/11/07 04:29:46;;;;;;;10.60;2.60;;;;;;;10.32;100.00;101887.34;2606759;22;20831;-68
2023/11/07 04:30:47;;;;;;;5.90;2.27;;;;;;;10.32;100.00;101887.34;2607316;22;20181;-68
2023/11/07 04:31:47;;;;;;;6.80;2.47;;;;;;;10.29;100.00;101880.63;2606965;22;20312;-68
2023/11/07 04:32:48;;;;;;;4.47;1.87;;;;;;;10.29;100.00;101883.41;2607278;22;20154;-68
2023/11/07 04:33:49;;;;;;;7.63;2.03;;;;;;;9.32;100.00;101737.63;2605841;22;20196;-68
2023/11/07 04:34:49;;;;;;;3.50;1.87;;;;;;;10.22;100.00;101886.19;2606679;22;20154;-68
2023/11/07 04:35:49;;;;;;;6.53;2.03;;;;;;;10.17;100.00;101880.25;2607226;22;20166;-68
2023/11/07 04:36:53;;;;;;;4.70;1.70;;;;;;;9.87;100.00;101839.16;2607561;22;20584;-68
2023/11/07 04:37:55;;;;;;;6.33;1.63;;;;;;;9.40;100.00;101773.19;2607240;22;20542;-68
2023/11/07 04:38:55;;;;;;;6.63;2.17;;;;;;;10.14;100.00;101890.16;2607423;22;20380;-68
2023/11/07 04:39:56;;;;;;;6.00;1.80;;;;;;;10.15;100.00;101888.19;2606565;22;20376;-68